Fairmont, WV (26554)

6:18 AM EDT on October 22, 2014 (GMT -0400)
N8TJD's WX Station. Stony Rd/Pinchgut Hollow. | Change Station
CLOSE
Current Station
Personal Weather Station
Location: Fairmont, WV
Elevation: 1283 ft
Nearby Weather Stations

Elev 1283 ft 39.46 °N, 80.12 °W | Updated 43 minutes ago

Rain
Rain
48.2 °F
Feels Like 48 °F
N
0.0
Wind Variable Wind from SW
Gusts 0.0 mph

Today
High -- | Low -- °F
--% Chance of Precip.
Yesterday
High -- | Low -- °F
Precip. -- in
7:37 AM 6:31 PM
Waning Crescent, 2% visible
Pressure 30.06 in
Visibility 4.0 miles
Clouds Overcast 700 ft
Windchill 48 °F
Dew Point 46 °F
Humidity 90%
Rainfall 0.00 in
Snow Depth Not available.
UV 0 out of 12
Pollen .60 out of 12
Air Quality Not available.
Flu Activity Sporadic
METAR KCKB 220953Z AUTO 28005KT 4SM -RA BR OVC007 08/07 A3006 RMK AO2 RAE27B44 CIG 004V010 SLP177 P0000 T00780072 TSNO $

More Conditions Fewer Conditions

Pressure 30.06 in
Visibility 4.0 miles
Clouds Overcast 700 ft
Windchill 48 °F
Dew Point 46 °F
Humidity 90%
Rainfall 0.00 in
Snow Depth Not available.
UV 0 out of 12
Pollen .60 out of 12
Air Quality Not available.
Flu Activity Sporadic
METAR KCKB 220953Z AUTO 28005KT 4SM -RA BR OVC007 08/07 A3006 RMK AO2 RAE27B44 CIG 004V010 SLP177 P0000 T00780072 TSNO $

More Conditions Fewer Conditions

10-Day Weather Forecast

Almanac

Astronomy

Oct. 22, 2014 Rise Set
Actual Time 7:37 AM EDT 6:31 PM EDT
Civil Twilight 7:10 AM EDT 6:58 PM EDT
Nautical Twilight 6:38 AM EDT 7:30 PM EDT
Astronomical Twilight 6:07 AM EDT 8:01 PM EDT
Moon 6:17 AM EDT 5:57 PM EDT
Length of Visible Light 11h 48m
Length of Day
10h 53m
Tomorrow will be 2m 25s shorter.
Waning Crescent, 2% of the Moon is Illuminated
Today
Waning Crescent
Oct 23
New
Oct 30
First Quarter
Nov 6
Full
Nov 14
Last Quarter

Today's Extremes

State Highs State Lows

Community

WunderPhotos

Upload Photos

1,763,901 photos uploaded!

Nearby

Snow Depth

Station Depth Elevation
No new snow has been reported.

Earthquake Activity

City Distance Mag. Time & Date
No recent earthquake activity has been reported nearby.
Minimum magnitude displayed is 2.5.

Coastal Water Temperatures

Place Temperature
No Stations Reporting

Nearby Weather Stations